Time;durP1;ratioP1;P1;durP2;ratioP2;P2;SDS_P1;SDS_P2;PMS_P1;PMS_P2;Temp;Humidity;BMP_temperature;BMP_pressure;BME280_temperature;BME280_humidity;BME280_pressure;Samples;Min_cycle;Max_cycle;Signal;HPM_P1;HPM_P2
2022/07/04 00:02:24;;;;;;;2.47;1.70;;;;;;;;;;4998782;28;20034;-86
2022/07/04 00:04:50;;;;;;;3.60;1.90;;;;;;;;;;4982456;28;20494;-86
2022/07/04 00:07:15;;;;;;;2.75;1.73;;;;;;;;;;4999598;28;20034;-87
2022/07/04 00:09:41;;;;;;;4.53;1.75;;;;;;;;;;4982083;28;20030;-86
2022/07/04 00:12:07;;;;;;;3.10;1.70;;;;;;;;;;4999539;28;20034;-86
2022/07/04 00:14:34;;;;;;;2.55;1.70;;;;;;;;;;4998319;28;20076;-86
2022/07/04 00:16:59;;;;;;;2.55;1.80;;;;;;;;;;4999797;28;20394;-86
2022/07/04 00:19:25;;;;;;;2.95;1.88;;;;;;;;;;4998587;28;20030;-85
2022/07/04 00:21:51;;;;;;;3.22;1.80;;;;;;;;;;4999898;28;20047;-86
2022/07/04 00:24:16;;;;;;;3.58;1.80;;;;;;;;;;4982056;28;20514;-87
2022/07/04 00:26:42;;;;;;;2.50;1.85;;;;;;;;;;4981694;28;20042;-86
2022/07/04 00:29:08;;;;;;;3.05;1.70;;;;;;;;;;4999852;28;20127;-86
2022/07/04 00:31:33;;;;;;;4.43;1.70;;;;;;;;;;4997781;28;20040;-86
2022/07/04 00:33:59;;;;;;;2.40;1.77;;;;;;;;;;4982225;28;20406;-86
2022/07/04 00:36:24;;;;;;;2.53;1.70;;;;;;;;;;4998846;28;20038;-87
2022/07/04 00:38:50;;;;;;;4.22;1.95;;;;;;;;;;4997798;28;20041;-86
2022/07/04 00:41:16;;;;;;;4.32;1.83;;;;;;;;;;4999518;28;20117;-86
2022/07/04 00:43:41;;;;;;;3.22;2.13;;;;;;;;;;4982015;28;20124;-86
2022/07/04 00:46:07;;;;;;;2.20;1.90;;;;;;;;;;4997603;28;20515;-86
2022/07/04 00:48:33;;;;;;;3.55;1.90;;;;;;;;;;4997347;28;20034;-86
2022/07/04 00:50:59;;;;;;;2.97;1.90;;;;;;;;;;4981812;28;20482;-86
2022/07/04 00:53:25;;;;;;;2.40;2.03;;;;;;;;;;4997869;28;20129;-86
2022/07/04 00:55:52;;;;;;;2.42;1.92;;;;;;;;;;4981640;28;20495;-86
2022/07/04 00:58:22;;;;;;;4.15;1.98;;;;;;;;;;4981411;28;20083;-86
2022/07/04 01:00:49;;;;;;;3.67;1.98;;;;;;;;;;4997917;28;20018;-87
2022/07/04 01:03:15;;;;;;;6.78;2.20;;;;;;;;;;4998033;28;20088;-87
2022/07/04 01:05:42;;;;;;;4.93;2.03;;;;;;;;;;4996719;28;20495;-86
2022/07/04 01:08:08;;;;;;;4.15;1.85;;;;;;;;;;4981464;28;20038;-86
2022/07/04 01:10:34;;;;;;;3.65;2.00;;;;;;;;;;4996858;28;20430;-86
2022/07/04 01:12:59;;;;;;;3.10;1.75;;;;;;;;;;4981240;28;20046;-86
2022/07/04 01:15:25;;;;;;;7.70;2.00;;;;;;;;;;4997420;28;20060;-86
2022/07/04 01:17:50;;;;;;;4.65;1.83;;;;;;;;;;4998866;28;20034;-86
2022/07/04 01:20:17;;;;;;;3.00;1.95;;;;;;;;;;4981539;28;20621;-85
2022/07/04 01:22:43;;;;;;;3.13;1.90;;;;;;;;;;4997858;28;20034;-86
2022/07/04 01:25:09;;;;;;;7.05;1.95;;;;;;;;;;4997652;28;20042;-86
2022/07/04 01:27:34;;;;;;;3.10;1.85;;;;;;;;;;4998055;28;20037;-86
2022/07/04 01:30:00;;;;;;;3.78;1.70;;;;;;;;;;4981696;28;20030;-85
2022/07/04 01:32:26;;;;;;;4.18;1.65;;;;;;;;;;4998138;28;20065;-86
2022/07/04 01:34:52;;;;;;;3.30;1.90;;;;;;;;;;4999041;28;20034;-88
2022/07/04 01:37:18;;;;;;;2.50;1.63;;;;;;;;;;4981702;28;20036;-86
2022/07/04 01:39:43;;;;;;;3.15;1.65;;;;;;;;;;4997535;28;20034;-85
2022/07/04 01:42:09;;;;;;;3.25;1.60;;;;;;;;;;4998614;28;20096;-87
2022/07/04 01:44:36;;;;;;;5.60;1.70;;;;;;;;;;4997211;28;20042;-86
2022/07/04 01:47:02;;;;;;;3.30;1.70;;;;;;;;;;4980965;28;20034;-86
2022/07/04 01:49:27;;;;;;;3.70;1.60;;;;;;;;;;4997172;28;20622;-87
2022/07/04 01:51:53;;;;;;;6.03;1.90;;;;;;;;;;4997423;28;20074;-85
2022/07/04 01:54:19;;;;;;;3.50;1.50;;;;;;;;;;4980876;28;20034;-86
2022/07/04 01:56:45;;;;;;;3.20;1.60;;;;;;;;;;4980559;28;20038;-85
2022/07/04 01:59:11;;;;;;;2.80;1.50;;;;;;;;;;4996599;28;20472;-88
2022/07/04 02:01:37;;;;;;;2.60;1.50;;;;;;;;;;4996732;28;20049;-86
2022/07/04 02:04:05;;;;;;;3.88;1.80;;;;;;;;;;4996915;28;20038;-85
2022/07/04 02:06:31;;;;;;;3.72;1.60;;;;;;;;;;4980801;28;20157;-87
2022/07/04 02:09:15;;;;;;;4.25;1.83;;;;;;;;;;4980491;28;20072;-88
2022/07/04 02:14:26;;;;;;;2.72;1.60;;;;;;;;;;4995430;28;20491;-87
2022/07/04 02:16:53;;;;;;;3.47;1.77;;;;;;;;;;4997423;28;20121;-86
2022/07/04 02:19:18;;;;;;;4.28;1.92;;;;;;;;;;4979929;28;20030;-87
2022/07/04 02:21:44;;;;;;;4.75;1.98;;;;;;;;;;4995537;28;20030;-86
2022/07/04 02:24:10;;;;;;;3.33;1.80;;;;;;;;;;4979527;28;20046;-87
2022/07/04 02:26:36;;;;;;;4.70;2.00;;;;;;;;;;4979891;28;20038;-87
2022/07/04 02:29:02;;;;;;;4.20;2.15;;;;;;;;;;4980337;28;20069;-87
2022/07/04 02:31:28;;;;;;;4.60;2.25;;;;;;;;;;4980843;28;20034;-86
2022/07/04 02:33:53;;;;;;;8.32;2.40;;;;;;;;;;4981816;28;20077;-86
2022/07/04 02:36:19;;;;;;;4.35;2.22;;;;;;;;;;4997737;28;20057;-85
2022/07/04 02:38:45;;;;;;;3.95;2.10;;;;;;;;;;4998202;28;20088;-86
2022/07/04 02:41:10;;;;;;;5.72;2.22;;;;;;;;;;4997537;28;20065;-86
2022/07/04 02:43:36;;;;;;;3.30;2.10;;;;;;;;;;4981643;28;20034;-86
2022/07/04 02:46:01;;;;;;;6.18;2.33;;;;;;;;;;4997932;28;20502;-86
2022/07/04 02:48:27;;;;;;;5.65;2.40;;;;;;;;;;4997231;28;20045;-86
2022/07/04 02:50:52;;;;;;;3.70;2.30;;;;;;;;;;4981361;28;20569;-86
2022/07/04 02:53:18;;;;;;;4.30;2.50;;;;;;;;;;4980598;28;20449;-86
2022/07/04 02:55:44;;;;;;;4.10;2.55;;;;;;;;;;4980866;28;20041;-86
2022/07/04 02:58:09;;;;;;;4.72;2.70;;;;;;;;;;4997043;28;20022;-86
2022/07/04 03:00:35;;;;;;;4.75;2.45;;;;;;;;;;4997533;28;20035;-86
2022/07/04 03:03:01;;;;;;;7.53;2.70;;;;;;;;;;4996829;28;20041;-86
2022/07/04 03:05:31;;;;;;;3.60;2.40;;;;;;;;;;4996781;28;20038;-85
2022/07/04 03:07:57;;;;;;;5.20;2.42;;;;;;;;;;4980734;28;20129;-86
2022/07/04 03:10:23;;;;;;;5.60;2.30;;;;;;;;;;4980673;28;20154;-85
2022/07/04 03:12:50;;;;;;;4.18;2.53;;;;;;;;;;4996105;28;20054;-86
2022/07/04 03:15:15;;;;;;;3.88;2.30;;;;;;;;;;4995530;28;20037;-85
2022/07/04 03:17:41;;;;;;;4.53;2.30;;;;;;;;;;4980688;28;20035;-85
2022/07/04 03:20:07;;;;;;;4.57;2.60;;;;;;;;;;4981845;28;20034;-86
2022/07/04 03:22:33;;;;;;;4.50;2.35;;;;;;;;;;4980206;28;20030;-86
2022/07/04 03:24:58;;;;;;;2.78;2.20;;;;;;;;;;4978982;28;20064;-86
2022/07/04 03:27:24;;;;;;;3.78;2.25;;;;;;;;;;4979119;28;20117;-86
2022/07/04 03:29:49;;;;;;;4.30;2.40;;;;;;;;;;4995943;28;20096;-85
2022/07/04 03:32:15;;;;;;;3.80;2.53;;;;;;;;;;4995944;28;20495;-86
2022/07/04 03:34:41;;;;;;;4.80;2.33;;;;;;;;;;4995422;28;20487;-86
2022/07/04 03:37:06;;;;;;;3.53;2.30;;;;;;;;;;4995843;28;20529;-86
2022/07/04 03:39:32;;;;;;;6.03;2.40;;;;;;;;;;4979361;28;20038;-86
2022/07/04 03:41:57;;;;;;;4.20;2.40;;;;;;;;;;4979353;28;20034;-86
2022/07/04 03:44:23;;;;;;;5.25;2.30;;;;;;;;;;4995241;28;20022;-86
2022/07/04 03:46:48;;;;;;;4.55;2.28;;;;;;;;;;4978787;28;20452;-87
2022/07/04 03:49:14;;;;;;;4.40;2.17;;;;;;;;;;4978285;28;20466;-87
2022/07/04 03:51:40;;;;;;;3.85;2.28;;;;;;;;;;4979013;28;20057;-87
2022/07/04 03:54:05;;;;;;;3.90;2.40;;;;;;;;;;4995600;28;20427;-86
2022/07/04 03:56:31;;;;;;;4.45;2.28;;;;;;;;;;4994495;28;20483;-86
2022/07/04 03:58:56;;;;;;;4.03;2.30;;;;;;;;;;4978706;28;20049;-85
2022/07/04 04:01:22;;;;;;;5.18;2.25;;;;;;;;;;4994805;28;20054;-86
2022/07/04 04:06:32;;;;;;;3.35;2.33;;;;;;;;;;4994867;28;20085;-87
2022/07/04 04:08:58;;;;;;;4.28;2.28;;;;;;;;;;4978354;28;20046;-87
2022/07/04 04:11:23;;;;;;;3.47;2.40;;;;;;;;;;4993909;28;20407;-85
2022/07/04 04:13:49;;;;;;;3.35;2.17;;;;;;;;;;4994492;28;20030;-87
2022/07/04 04:16:14;;;;;;;3.15;2.15;;;;;;;;;;4978163;28;20046;-86
2022/07/04 04:18:40;;;;;;;2.80;2.13;;;;;;;;;;4994622;28;20030;-86
2022/07/04 04:21:06;;;;;;;3.67;2.05;;;;;;;;;;4962038;28;20038;-87
2022/07/04 04:23:32;;;;;;;4.97;2.25;;;;;;;;;;4978346;28;20423;-86
2022/07/04 04:25:57;;;;;;;3.50;2.20;;;;;;;;;;4995056;28;20053;-86
2022/07/04 04:28:23;;;;;;;3.65;1.98;;;;;;;;;;4995543;28;20551;-87
2022/07/04 04:30:52;;;;;;;3.05;2.28;;;;;;;;;;4978320;28;20053;-86
2022/07/04 04:33:17;;;;;;;5.10;2.10;;;;;;;;;;4978970;28;20042;-86
2022/07/04 04:35:43;;;;;;;2.90;2.05;;;;;;;;;;4978035;28;20038;-86
2022/07/04 04:38:09;;;;;;;5.53;2.15;;;;;;;;;;4977781;28;20026;-86
2022/07/04 04:40:35;;;;;;;3.17;2.10;;;;;;;;;;4978025;28;20538;-86
2022/07/04 04:43:00;;;;;;;2.75;2.10;;;;;;;;;;4994542;28;20034;-87
2022/07/04 04:45:26;;;;;;;3.40;2.10;;;;;;;;;;4998253;28;20065;-87
2022/07/04 04:47:53;;;;;;;2.72;1.90;;;;;;;;;;4999913;28;20041;-86
2022/07/04 04:50:20;;;;;;;2.97;2.10;;;;;;;;;;4985280;28;20038;-87
2022/07/04 04:52:46;;;;;;;4.05;2.20;;;;;;;;;;5001134;28;20087;-87
2022/07/04 04:55:11;;;;;;;3.47;2.40;;;;;;;;;;4984084;28;20133;-86
2022/07/04 04:57:37;;;;;;;2.83;2.10;;;;;;;;;;4983093;28;20121;-86
2022/07/04 05:00:04;;;;;;;5.30;2.15;;;;;;;;;;4998792;28;20022;-87
2022/07/04 05:02:30;;;;;;;2.22;1.80;;;;;;;;;;4980958;28;20058;-85
2022/07/04 05:04:55;;;;;;;4.00;2.33;;;;;;;;;;4980945;28;20030;-87
2022/07/04 05:07:21;;;;;;;3.08;2.03;;;;;;;;;;4981231;28;20041;-87
2022/07/04 05:09:47;;;;;;;2.22;1.88;;;;;;;;;;4981191;28;20034;-87
2022/07/04 05:12:13;;;;;;;2.40;2.00;;;;;;;;;;4997359;28;20054;-86
2022/07/04 05:14:38;;;;;;;3.45;2.10;;;;;;;;;;4981455;28;20102;-86
2022/07/04 05:17:04;;;;;;;4.57;2.00;;;;;;;;;;4997536;28;20030;-88
2022/07/04 05:19:29;;;;;;;5.30;2.00;;;;;;;;;;4982184;28;20042;-88
2022/07/04 05:21:55;;;;;;;3.80;2.00;;;;;;;;;;4998680;28;20104;-88
2022/07/04 05:24:21;;;;;;;2.97;1.90;;;;;;;;;;4996805;28;20069;-87
2022/07/04 05:26:47;;;;;;;2.47;1.80;;;;;;;;;;4981125;28;20069;-87
2022/07/04 05:29:12;;;;;;;2.83;2.08;;;;;;;;;;4997508;28;20030;-87
2022/07/04 05:31:38;;;;;;;2.38;1.92;;;;;;;;;;4996837;28;20032;-87
2022/07/04 05:34:04;;;;;;;3.53;1.92;;;;;;;;;;4996406;28;20225;-87
2022/07/04 05:36:30;;;;;;;4.28;2.10;;;;;;;;;;4980167;28;20149;-88
2022/07/04 05:38:57;;;;;;;3.78;2.00;;;;;;;;;;4981363;28;20034;-88
2022/07/04 05:41:23;;;;;;;3.90;1.70;;;;;;;;;;4997726;28;20042;-88
2022/07/04 05:43:49;;;;;;;3.25;2.05;;;;;;;;;;4996635;28;20045;-88
2022/07/04 05:46:15;;;;;;;2.95;2.00;;;;;;;;;;4996863;28;20038;-88
2022/07/04 05:48:40;;;;;;;2.60;1.90;;;;;;;;;;4999049;28;20038;-85
2022/07/04 05:51:07;;;;;;;2.95;1.90;;;;;;;;;;4998034;28;20034;-87
2022/07/04 05:53:33;;;;;;;3.83;1.80;;;;;;;;;;4981710;28;20038;-87
2022/07/04 05:55:58;;;;;;;2.60;1.95;;;;;;;;;;4980248;28;20141;-88
2022/07/04 05:58:24;;;;;;;3.97;1.90;;;;;;;;;;4998761;28;20053;-87
2022/07/04 06:00:50;;;;;;;2.83;1.88;;;;;;;;;;4997613;28;20049;-87
2022/07/04 06:03:16;;;;;;;3.15;1.85;;;;;;;;;;4996077;28;20038;-87
2022/07/04 06:05:41;;;;;;;2.28;1.80;;;;;;;;;;4997410;28;20038;-87
2022/07/04 06:08:07;;;;;;;3.80;1.95;;;;;;;;;;4979616;28;20693;-87
2022/07/04 06:10:33;;;;;;;2.95;1.73;;;;;;;;;;4979982;28;20101;-87
2022/07/04 06:12:59;;;;;;;2.75;1.70;;;;;;;;;;4979431;28;20038;-87
2022/07/04 06:15:25;;;;;;;2.83;1.48;;;;;;;;;;4980074;28;20035;-87
2022/07/04 06:17:50;;;;;;;2.63;1.80;;;;;;;;;;4997781;28;20102;-87
2022/07/04 06:20:16;;;;;;;4.28;1.73;;;;;;;;;;4979525;28;20034;-87
2022/07/04 06:22:47;;;;;;;3.88;2.00;;;;;;;;;;4995479;28;20034;-87
2022/07/04 06:25:14;;;;;;;4.30;1.80;;;;;;;;;;4979023;28;20073;-87
2022/07/04 06:27:41;;;;;;;4.18;1.73;;;;;;;;;;4995027;28;20122;-86
2022/07/04 06:30:07;;;;;;;2.20;1.80;;;;;;;;;;4996218;28;20176;-88
2022/07/04 06:32:54;;;;;;;2.58;1.60;;;;;;;;;;4996123;28;20049;-87
2022/07/04 06:38:09;;;;;;;1.58;1.40;;;;;;;;;;4997276;28;20491;-86
2022/07/04 06:40:36;;;;;;;4.00;1.80;;;;;;;;;;4979920;28;20038;-87
2022/07/04 06:43:03;;;;;;;2.67;1.75;;;;;;;;;;4996412;28;20030;-87
2022/07/04 06:45:29;;;;;;;2.30;1.80;;;;;;;;;;4979139;28;20034;-87
2022/07/04 06:47:54;;;;;;;2.20;1.80;;;;;;;;;;4980568;28;20031;-87
2022/07/04 06:50:20;;;;;;;3.83;1.85;;;;;;;;;;4979366;28;20414;-87
2022/07/04 06:52:46;;;;;;;3.38;1.70;;;;;;;;;;4995488;28;20386;-87
2022/07/04 06:55:12;;;;;;;2.10;1.67;;;;;;;;;;4979025;28;20038;-87
2022/07/04 06:57:38;;;;;;;2.28;1.63;;;;;;;;;;4994733;28;20026;-86
2022/07/04 07:00:08;;;;;;;2.40;1.50;;;;;;;;;;4979097;28;20557;-86
2022/07/04 07:02:35;;;;;;;1.75;1.40;;;;;;;;;;4979043;28;20495;-87
2022/07/04 07:05:01;;;;;;;2.67;1.63;;;;;;;;;;4979214;28;20045;-87
2022/07/04 07:07:27;;;;;;;2.33;1.67;;;;;;;;;;4994022;28;20089;-87
2022/07/04 07:09:54;;;;;;;2.40;1.77;;;;;;;;;;4995233;28;20038;-87
2022/07/04 07:12:20;;;;;;;2.38;1.58;;;;;;;;;;4978718;28;20042;-86
2022/07/04 07:14:46;;;;;;;3.88;1.50;;;;;;;;;;4978593;28;20116;-86
2022/07/04 07:17:12;;;;;;;2.03;1.60;;;;;;;;;;4994623;28;20035;-86
2022/07/04 07:19:38;;;;;;;1.83;1.60;;;;;;;;;;4995100;28;20045;-86
2022/07/04 07:22:04;;;;;;;3.42;1.63;;;;;;;;;;4978876;28;20038;-87
2022/07/04 07:24:30;;;;;;;2.40;1.48;;;;;;;;;;4994799;28;20320;-87
2022/07/04 07:26:56;;;;;;;12.25;1.58;;;;;;;;;;4978473;28;20118;-86
2022/07/04 07:29:23;;;;;;;2.05;1.30;;;;;;;;;;4978652;28;20026;-86
2022/07/04 07:31:49;;;;;;;1.33;1.13;;;;;;;;;;4995123;28;20038;-87
2022/07/04 07:34:14;;;;;;;1.83;1.00;;;;;;;;;;4978317;28;20117;-87
2022/07/04 07:36:40;;;;;;;1.48;1.08;;;;;;;;;;4994501;28;20072;-87
2022/07/04 07:39:06;;;;;;;2.40;1.10;;;;;;;;;;4994613;28;20061;-87
2022/07/04 07:41:31;;;;;;;3.15;1.10;;;;;;;;;;4995579;28;20039;-87
2022/07/04 07:43:57;;;;;;;2.13;1.20;;;;;;;;;;4994670;28;20258;-86
2022/07/04 07:46:23;;;;;;;1.90;1.20;;;;;;;;;;4978821;28;20030;-87
2022/07/04 07:48:49;;;;;;;2.22;1.20;;;;;;;;;;4994619;28;20161;-86
2022/07/04 07:51:16;;;;;;;2.08;1.20;;;;;;;;;;4994436;28;20085;-87
2022/07/04 07:53:42;;;;;;;1.20;1.10;;;;;;;;;;4978305;28;20046;-86
2022/07/04 07:56:08;;;;;;;2.45;1.15;;;;;;;;;;4977953;28;20023;-87
2022/07/04 07:58:34;;;;;;;1.92;1.30;;;;;;;;;;4994773;28;20499;-87
2022/07/04 08:01:01;;;;;;;3.05;1.27;;;;;;;;;;4994419;28;20038;-86
2022/07/04 08:06:13;;;;;;;1.95;1.10;;;;;;;;;;4994348;28;20455;-87
2022/07/04 08:08:42;;;;;;;1.65;1.10;;;;;;;;;;4962323;28;20573;-87
2022/07/04 08:11:11;;;;;;;2.13;1.15;;;;;;;;;;4996212;28;20072;-87
2022/07/04 08:13:38;;;;;;;1.50;1.20;;;;;;;;;;4979119;28;20430;-86
2022/07/04 08:16:05;;;;;;;1.17;1.08;;;;;;;;;;4979158;28;20038;-86
2022/07/04 08:18:31;;;;;;;5.10;1.20;;;;;;;;;;4980107;28;20041;-86
2022/07/04 08:20:56;;;;;;;1.63;1.15;;;;;;;;;;4982906;28;20038;-86
2022/07/04 08:23:22;;;;;;;1.77;1.05;;;;;;;;;;4998466;28;20042;-87
2022/07/04 08:25:47;;;;;;;2.55;1.17;;;;;;;;;;4999069;28;20026;-87
2022/07/04 08:28:13;;;;;;;1.90;1.05;;;;;;;;;;4997892;28;20061;-86
2022/07/04 08:30:39;;;;;;;2.00;1.10;;;;;;;;;;4999126;28;20038;-87
2022/07/04 08:33:04;;;;;;;1.92;1.10;;;;;;;;;;4998379;28;20124;-87
2022/07/04 08:35:30;;;;;;;1.60;1.20;;;;;;;;;;4999072;28;20447;-86
2022/07/04 08:37:56;;;;;;;2.58;1.30;;;;;;;;;;4997966;28;20026;-86
2022/07/04 08:40:22;;;;;;;1.45;1.20;;;;;;;;;;4981713;28;20518;-87
2022/07/04 08:42:49;;;;;;;1.92;1.20;;;;;;;;;;4998871;28;20038;-86
2022/07/04 08:45:16;;;;;;;4.13;1.20;;;;;;;;;;4981965;28;20034;-87
2022/07/04 08:47:43;;;;;;;2.00;1.27;;;;;;;;;;4997747;28;20479;-86
2022/07/04 08:50:16;;;;;;;2.40;1.25;;;;;;;;;;4997641;28;20189;-87
2022/07/04 08:52:47;;;;;;;1.80;1.30;;;;;;;;;;4999631;28;20084;-86
2022/07/04 09:00:42;;;;;;;3.35;1.20;;;;;;;;;;4998911;28;20035;-86
2022/07/04 09:03:09;;;;;;;1.95;1.23;;;;;;;;;;4981784;28;20042;-86
2022/07/04 09:05:35;;;;;;;1.60;1.20;;;;;;;;;;4999033;28;20038;-87
2022/07/04 09:08:02;;;;;;;1.60;1.20;;;;;;;;;;4999087;28;20058;-87
2022/07/04 09:10:28;;;;;;;2.17;1.40;;;;;;;;;;4981918;28;20046;-87
2022/07/04 09:12:54;;;;;;;4.88;1.70;;;;;;;;;;4982027;28;20045;-88
2022/07/04 09:15:20;;;;;;;2.38;1.40;;;;;;;;;;4982081;28;20027;-86
2022/07/04 09:17:47;;;;;;;1.98;1.30;;;;;;;;;;4997698;28;20030;-86
2022/07/04 09:20:19;;;;;;;3.08;1.30;;;;;;;;;;4981270;28;20042;-87
2022/07/04 09:22:47;;;;;;;2.58;1.23;;;;;;;;;;4998130;28;20510;-86
2022/07/04 09:25:16;;;;;;;2.63;1.33;;;;;;;;;;4981886;28;20085;-86
2022/07/04 09:27:48;;;;;;;2.67;1.50;;;;;;;;;;4998871;28;20038;-87
2022/07/04 09:30:16;;;;;;;4.75;1.35;;;;;;;;;;4996854;28;20076;-86
2022/07/04 09:32:46;;;;;;;3.53;1.40;;;;;;;;;;4997673;28;20491;-87
2022/07/04 09:35:24;;;;;;;2.20;1.30;;;;;;;;;;4998187;28;20038;-85
2022/07/04 09:37:55;;;;;;;2.22;1.30;;;;;;;;;;4981763;28;20026;-87
2022/07/04 09:41:24;;;;;;;2.10;1.30;;;;;;;;;;4998110;28;20053;-87
2022/07/04 09:43:20;;;;;;;2.75;1.30;;;;;;;;;;4997169;28;20041;-87
2022/07/04 09:45:54;;;;;;;2.58;1.45;;;;;;;;;;4997343;28;20038;-86
2022/07/04 09:48:20;;;;;;;4.85;1.27;;;;;;;;;;4981448;28;20125;-87
2022/07/04 09:50:45;;;;;;;2.90;1.40;;;;;;;;;;4997697;28;20058;-86
2022/07/04 09:53:11;;;;;;;2.30;1.20;;;;;;;;;;4997574;28;20035;-87
2022/07/04 09:55:38;;;;;;;2.47;1.27;;;;;;;;;;4997589;28;20034;-86
2022/07/04 09:58:15;;;;;;;3.20;1.60;;;;;;;;;;4998529;28;20026;-86
2022/07/04 10:00:43;;;;;;;3.97;1.50;;;;;;;;;;4980893;28;20410;-87
2022/07/04 10:03:25;;;;;;;3.40;1.40;;;;;;;;;;4997006;28;20499;-86
2022/07/04 10:06:12;;;;;;;3.13;1.50;;;;;;;;;;4996902;28;20050;-87
2022/07/04 10:08:39;;;;;;;2.63;1.50;;;;;;;;;;4996793;28;20042;-86
2022/07/04 10:11:05;;;;;;;4.65;1.48;;;;;;;;;;4996918;28;20061;-86
2022/07/04 10:13:32;;;;;;;3.13;1.38;;;;;;;;;;4996308;28;20030;-87
2022/07/04 10:15:58;;;;;;;4.30;1.40;;;;;;;;;;4996947;28;20041;-88
2022/07/04 10:18:25;;;;;;;4.50;1.58;;;;;;;;;;4980373;28;20490;-86
2022/07/04 10:20:52;;;;;;;2.90;1.50;;;;;;;;;;4996609;28;20030;-86
2022/07/04 10:23:19;;;;;;;2.88;1.52;;;;;;;;;;4980844;28;20427;-85
2022/07/04 10:25:53;;;;;;;2.85;1.70;;;;;;;;;;4979330;28;20045;-86
2022/07/04 10:28:19;;;;;;;2.67;1.30;;;;;;;;;;4988848;28;20038;-84
2022/07/04 10:30:55;;;;;;;2.60;1.50;;;;;;;;;;5008006;28;20040;-84
2022/07/04 10:33:26;;;;;;;2.20;1.48;;;;;;;;;;5006612;28;20092;-85
2022/07/04 10:35:56;;;;;;;3.08;1.58;;;;;;;;;;5007502;28;20038;-84
2022/07/04 10:38:27;;;;;;;2.10;1.50;;;;;;;;;;5007194;28;20061;-85
2022/07/04 10:40:56;;;;;;;2.05;1.60;;;;;;;;;;5006158;28;20048;-84
2022/07/04 10:43:25;;;;;;;2.30;1.63;;;;;;;;;;5007613;28;20402;-85
2022/07/04 10:45:54;;;;;;;5.38;1.60;;;;;;;;;;5005579;28;20030;-85
2022/07/04 10:48:21;;;;;;;3.60;1.60;;;;;;;;;;4988735;28;20132;-84
2022/07/04 10:51:04;;;;;;;3.25;1.88;;;;;;;;;;4988892;28;20026;-85
2022/07/04 10:53:31;;;;;;;5.90;1.60;;;;;;;;;;5005203;28;20034;-85
2022/07/04 10:56:14;;;;;;;4.15;1.77;;;;;;;;;;4988374;28;20498;-83
2022/07/04 10:58:42;;;;;;;2.55;1.50;;;;;;;;;;5005599;28;20034;-84
2022/07/04 11:01:15;;;;;;;2.72;1.60;;;;;;;;;;5004206;28;20050;-85
2022/07/04 11:03:45;;;;;;;;;;;;;;;;;;4988839;28;20050;-84
2022/07/04 11:06:32;;;;;;;3.17;1.63;;;;;;;;;;4987465;28;19925;-85
2022/07/04 11:09:17;;;;;;;3.47;1.80;;;;;;;;;;5004183;28;20042;-84
2022/07/04 11:11:58;;;;;;;3.85;1.80;;;;;;;;;;5004892;28;20038;-84
2022/07/04 11:14:36;;;;;;;3.60;1.80;;;;;;;;;;5004067;28;20491;-85
2022/07/04 11:17:03;;;;;;;3.97;1.70;;;;;;;;;;5003927;28;20030;-84
2022/07/04 11:19:29;;;;;;;3.75;1.77;;;;;;;;;;4987683;28;20046;-85
2022/07/04 11:21:55;;;;;;;5.22;1.58;;;;;;;;;;5004079;28;20170;-85
2022/07/04 11:24:22;;;;;;;3.97;1.85;;;;;;;;;;5004653;28;20046;-85
2022/07/04 11:26:48;;;;;;;2.63;1.70;;;;;;;;;;4988327;28;20027;-85
2022/07/04 11:29:14;;;;;;;2.97;1.70;;;;;;;;;;5004999;28;20106;-85
2022/07/04 11:31:45;;;;;;;4.78;1.77;;;;;;;;;;4972739;28;20030;-85
2022/07/04 11:34:11;;;;;;;3.58;1.60;;;;;;;;;;4987928;28;20034;-85
2022/07/04 11:36:39;;;;;;;6.57;1.90;;;;;;;;;;5005369;28;20014;-85
2022/07/04 11:39:07;;;;;;;3.72;2.00;;;;;;;;;;5004909;28;20095;-85
2022/07/04 11:47:25;;;;;;;4.57;2.20;;;;;;;;;;5004090;28;20077;-85
2022/07/04 11:49:55;;;;;;;4.38;2.10;;;;;;;;;;5005366;28;20034;-85
2022/07/04 11:52:28;;;;;;;4.13;2.03;;;;;;;;;;5005462;28;20046;-85
2022/07/04 11:54:54;;;;;;;2.22;1.70;;;;;;;;;;5004987;28;20038;-85
2022/07/04 11:57:26;;;;;;;3.15;2.03;;;;;;;;;;5006540;28;20033;-86
2022/07/04 11:59:59;;;;;;;4.03;1.88;;;;;;;;;;4989110;28;20045;-85
2022/07/04 12:02:26;;;;;;;2.88;1.95;;;;;;;;;;5005911;28;20466;-85
2022/07/04 12:04:52;;;;;;;4.10;1.90;;;;;;;;;;4988835;28;20086;-85
2022/07/04 12:07:20;;;;;;;3.75;1.83;;;;;;;;;;5006477;28;20069;-85
2022/07/04 12:09:47;;;;;;;4.65;2.25;;;;;;;;;;4989339;28;20034;-84
2022/07/04 12:12:14;;;;;;;4.28;2.08;;;;;;;;;;5005346;28;20026;-85
2022/07/04 12:14:55;;;;;;;2.95;1.98;;;;;;;;;;5004955;28;20038;-84
2022/07/04 12:17:21;;;;;;;2.95;1.80;;;;;;;;;;5005240;28;20495;-84
2022/07/04 12:19:54;;;;;;;5.32;1.75;;;;;;;;;;4988982;28;20041;-84
2022/07/04 12:22:43;;;;;;;3.30;1.80;;;;;;;;;;5005676;28;20089;-84
2022/07/04 12:25:25;;;;;;;2.20;1.80;;;;;;;;;;5004889;28;20041;-85
2022/07/04 12:28:02;;;;;;;3.05;1.90;;;;;;;;;;4988639;28;20034;-85
2022/07/04 12:30:38;;;;;;;3.08;1.70;;;;;;;;;;4988671;28;20045;-87
2022/07/04 12:33:05;;;;;;;2.08;1.60;;;;;;;;;;5004575;28;20058;-84
2022/07/04 12:35:47;;;;;;;2.42;1.70;;;;;;;;;;5005923;28;20042;-86
2022/07/04 12:38:21;;;;;;;3.63;1.60;;;;;;;;;;5006239;28;20053;-86
2022/07/04 12:40:53;;;;;;;2.03;1.55;;;;;;;;;;4988937;28;20077;-85
2022/07/04 12:43:19;;;;;;;2.42;1.60;;;;;;;;;;4988931;28;20106;-86
2022/07/04 12:45:47;;;;;;;2.40;1.65;;;;;;;;;;5004157;28;20391;-86
2022/07/04 12:48:23;;;;;;;2.88;1.80;;;;;;;;;;5005238;28;20027;-85
2022/07/04 12:50:49;;;;;;;4.95;1.80;;;;;;;;;;4989144;28;20039;-86
2022/07/04 12:53:16;;;;;;;2.03;1.67;;;;;;;;;;4988530;28;20038;-86
2022/07/04 12:55:46;;;;;;;2.25;1.67;;;;;;;;;;5005424;28;20042;-86
2022/07/04 12:58:12;;;;;;;2.97;1.67;;;;;;;;;;5006423;28;20022;-86
2022/07/04 13:00:39;;;;;;;3.50;1.80;;;;;;;;;;5005094;28;20034;-85
2022/07/04 13:03:05;;;;;;;3.05;1.70;;;;;;;;;;5005718;28;20033;-86
2022/07/04 13:05:34;;;;;;;2.22;1.70;;;;;;;;;;5006964;28;20043;-84
2022/07/04 13:08:00;;;;;;;4.03;1.73;;;;;;;;;;4991612;28;20061;-85
2022/07/04 13:10:26;;;;;;;4.45;1.70;;;;;;;;;;4992081;28;20050;-85
2022/07/04 13:12:52;;;;;;;3.38;1.80;;;;;;;;;;4991894;28;20034;-85
2022/07/04 13:15:17;;;;;;;3.13;1.70;;;;;;;;;;4991094;28;20061;-85
2022/07/04 13:17:43;;;;;;;3.75;1.60;;;;;;;;;;5008774;28;20038;-85
2022/07/04 13:20:09;;;;;;;2.30;1.80;;;;;;;;;;5008101;28;20039;-85
2022/07/04 13:22:35;;;;;;;5.40;2.00;;;;;;;;;;5009232;28;20053;-84
2022/07/04 13:25:03;;;;;;;2.53;1.73;;;;;;;;;;4991684;28;20035;-85
2022/07/04 13:27:29;;;;;;;2.45;1.70;;;;;;;;;;5007199;28;20483;-85
2022/07/04 13:29:54;;;;;;;4.13;1.77;;;;;;;;;;4991117;28;20035;-84
2022/07/04 13:32:20;;;;;;;3.20;1.73;;;;;;;;;;4991909;28;20143;-85
2022/07/04 13:34:45;;;;;;;2.58;1.80;;;;;;;;;;4990725;28;20070;-85
2022/07/04 13:37:11;;;;;;;2.72;1.70;;;;;;;;;;5007656;28;20024;-84
2022/07/04 13:39:37;;;;;;;2.53;1.70;;;;;;;;;;4991680;28;20069;-85
2022/07/04 13:42:03;;;;;;;2.83;1.63;;;;;;;;;;4991041;28;20030;-85
2022/07/04 13:44:29;;;;;;;2.50;1.73;;;;;;;;;;4990676;28;20042;-85
2022/07/04 13:46:56;;;;;;;5.18;1.70;;;;;;;;;;5006798;28;20045;-85
2022/07/04 13:49:22;;;;;;;3.30;1.85;;;;;;;;;;5007146;28;20034;-84
2022/07/04 13:51:47;;;;;;;2.50;1.80;;;;;;;;;;4991381;28;20038;-85
2022/07/04 13:54:13;;;;;;;2.42;1.45;;;;;;;;;;5007265;28;20014;-85
2022/07/04 13:56:40;;;;;;;2.53;1.70;;;;;;;;;;5008979;28;20499;-85
2022/07/04 13:59:05;;;;;;;3.55;1.60;;;;;;;;;;5006851;28;20102;-85
2022/07/04 14:01:31;;;;;;;5.45;2.08;;;;;;;;;;4990984;28;20057;-85
2022/07/04 14:03:57;;;;;;;2.28;1.65;;;;;;;;;;4991882;28;20106;-84
2022/07/04 14:06:22;;;;;;;2.15;1.70;;;;;;;;;;4991215;28;20169;-85
2022/07/04 14:08:48;;;;;;;3.53;1.60;;;;;;;;;;5008465;28;20077;-84
2022/07/04 14:11:13;;;;;;;1.98;1.40;;;;;;;;;;5006974;28;20026;-85
2022/07/04 14:13:39;;;;;;;2.33;1.70;;;;;;;;;;5006811;28;20076;-85
2022/07/04 14:16:06;;;;;;;3.17;1.70;;;;;;;;;;4990444;28;20038;-85
2022/07/04 14:18:34;;;;;;;2.28;1.60;;;;;;;;;;5006175;28;20042;-85
2022/07/04 14:21:00;;;;;;;2.58;1.63;;;;;;;;;;5007002;28;20038;-84
2022/07/04 14:23:41;;;;;;;2.40;1.60;;;;;;;;;;5006711;28;20050;-86
2022/07/04 14:26:15;;;;;;;3.15;1.77;;;;;;;;;;5007448;28;20035;-86
2022/07/04 14:28:44;;;;;;;3.83;1.60;;;;;;;;;;5007986;28;20126;-85
2022/07/04 14:31:10;;;;;;;3.38;1.60;;;;;;;;;;5006573;28;20032;-85
2022/07/04 14:33:36;;;;;;;3.33;1.80;;;;;;;;;;5006104;28;20037;-85
2022/07/04 14:36:03;;;;;;;2.85;1.67;;;;;;;;;;4990690;28;20098;-85
2022/07/04 14:38:29;;;;;;;3.30;1.73;;;;;;;;;;4990082;28;20049;-85
2022/07/04 14:40:55;;;;;;;3.60;1.70;;;;;;;;;;5006059;28;20034;-84
2022/07/04 14:43:20;;;;;;;4.65;2.00;;;;;;;;;;5007005;28;20068;-85
2022/07/04 14:45:46;;;;;;;2.80;1.80;;;;;;;;;;4989836;28;20507;-85
2022/07/04 14:48:16;;;;;;;5.10;1.90;;;;;;;;;;5005555;28;20034;-85
2022/07/04 14:50:42;;;;;;;7.15;2.17;;;;;;;;;;5006045;28;20097;-85
2022/07/04 14:53:08;;;;;;;2.40;1.80;;;;;;;;;;5006523;28;20023;-85
2022/07/04 14:55:33;;;;;;;3.83;1.90;;;;;;;;;;5007483;28;20037;-85
2022/07/04 14:57:59;;;;;;;2.45;2.00;;;;;;;;;;4989339;28;20406;-84
2022/07/04 15:00:25;;;;;;;4.53;1.90;;;;;;;;;;5007240;28;20034;-86
2022/07/04 15:02:50;;;;;;;2.15;1.80;;;;;;;;;;4990128;28;20479;-84
2022/07/04 15:05:16;;;;;;;3.95;2.00;;;;;;;;;;4990369;28;20512;-84
2022/07/04 15:07:42;;;;;;;2.58;1.77;;;;;;;;;;5005906;28;20046;-85